createdAt,value
2023-03-04T00:03:51.051Z,14.18
2023-03-04T00:08:52.483Z,16.70
2023-03-04T00:13:53.890Z,10.52
2023-03-04T00:18:56.015Z,11.55
2023-03-04T00:23:57.491Z,13.18
2023-03-04T00:28:58.981Z,16.27
2023-03-04T00:34:00.504Z,11.70
2023-03-04T00:39:02.000Z,16.58
2023-03-04T00:44:03.478Z,13.68
2023-03-04T00:49:04.960Z,10.85
2023-03-04T00:54:06.380Z,18.13
2023-03-04T00:59:07.772Z,14.25
2023-03-04T01:04:09.165Z,11.82
2023-03-04T01:09:10.597Z,13.23
2023-03-04T01:14:12.258Z,8.15
2023-03-04T01:19:13.658Z,12.20
2023-03-04T01:24:15.103Z,12.23
2023-03-04T01:29:16.604Z,10.85
2023-03-04T01:34:18.160Z,11.98
2023-03-04T01:39:19.551Z,10.40
2023-03-04T01:44:21.024Z,12.38
2023-03-04T01:49:22.856Z,10.95
2023-03-04T01:54:24.290Z,8.85
2023-03-04T01:59:26.825Z,8.40
2023-03-04T02:04:29.082Z,14.00
2023-03-04T02:09:30.925Z,18.58
2023-03-04T02:14:32.521Z,6.43
2023-03-04T02:20:00.261Z,8.48
2023-03-04T02:25:05.413Z,11.10
2023-03-04T02:30:07.203Z,11.75
2023-03-04T02:35:13.886Z,15.57
2023-03-04T02:40:17.270Z,12.38
2023-03-04T02:45:35.218Z,10.00
2023-03-04T02:50:39.502Z,9.18
2023-03-04T02:55:42.684Z,13.05
2023-03-04T03:00:44.177Z,12.48
2023-03-04T03:05:45.715Z,16.23
2023-03-04T03:10:47.111Z,8.23
2023-03-04T03:15:50.117Z,16.23
2023-03-04T03:20:51.758Z,9.35
2023-03-04T03:25:53.185Z,14.05
2023-03-04T03:30:55.060Z,12.82
2023-03-04T03:35:57.836Z,13.13
2023-03-04T03:40:59.267Z,7.28
2023-03-04T03:46:00.700Z,11.73
2023-03-04T03:51:02.140Z,11.18
2023-03-04T03:56:05.037Z,7.63
2023-03-04T04:01:06.543Z,14.75
2023-03-04T04:06:07.974Z,16.33
2023-03-04T04:11:12.848Z,10.10
2023-03-04T04:16:14.300Z,6.03
2023-03-04T04:21:15.846Z,9.02
2023-03-04T04:26:17.271Z,10.60
2023-03-04T04:31:18.646Z,9.23
2023-03-04T04:36:21.187Z,9.38
2023-03-04T04:41:24.400Z,8.90
2023-03-04T04:46:26.501Z,10.68
2023-03-04T04:51:28.161Z,7.03
2023-03-04T04:56:29.898Z,9.80
2023-03-04T05:01:31.764Z,10.70
2023-03-04T05:06:33.326Z,9.02
2023-03-04T05:11:34.719Z,9.20
2023-03-04T05:16:36.164Z,9.18
2023-03-04T05:21:37.582Z,6.22
2023-03-04T05:26:38.996Z,12.77
2023-03-04T05:31:40.391Z,11.02
2023-03-04T05:36:41.953Z,8.20
2023-03-04T05:41:43.439Z,10.93
2023-03-04T05:46:44.908Z,15.15
2023-03-04T05:51:46.412Z,5.65
2023-03-04T05:56:47.996Z,2.47
2023-03-04T06:01:49.464Z,4.38
2023-03-04T06:06:50.875Z,5.88
2023-03-04T06:11:52.279Z,7.90
2023-03-04T06:16:53.754Z,5.45
2023-03-04T06:21:55.326Z,5.07
2023-03-04T06:26:56.725Z,2.03
2023-03-04T06:31:58.225Z,7.40
2023-03-04T06:37:00.243Z,3.20
2023-03-04T06:42:01.668Z,4.30
2023-03-04T06:47:03.060Z,5.25
2023-03-04T06:52:04.522Z,5.47
2023-03-04T06:57:06.706Z,6.65
2023-03-04T07:02:10.938Z,6.32
2023-03-04T07:07:12.427Z,8.75
2023-03-04T07:12:13.858Z,6.82
2023-03-04T07:17:15.248Z,8.93
2023-03-04T07:22:16.699Z,5.60
2023-03-04T07:27:18.098Z,7.45
2023-03-04T07:32:19.759Z,4.88
2023-03-04T07:37:21.386Z,6.13
2023-03-04T07:42:22.913Z,7.82
2023-03-04T07:47:24.414Z,6.13
2023-03-04T07:52:25.886Z,8.50
2023-03-04T07:57:27.301Z,8.20
2023-03-04T08:02:28.815Z,7.45
2023-03-04T08:07:30.430Z,4.97
2023-03-04T08:12:31.930Z,5.65
2023-03-04T08:17:34.302Z,5.00
2023-03-04T08:22:35.814Z,6.28
2023-03-04T08:27:37.514Z,5.18
2023-03-04T08:32:39.378Z,7.13
2023-03-04T08:37:40.848Z,7.90
2023-03-04T08:42:42.290Z,8.75
2023-03-04T08:47:43.760Z,7.32
2023-03-04T08:52:45.172Z,7.10
2023-03-04T08:57:46.579Z,11.90
2023-03-04T09:02:48.017Z,8.80
2023-03-04T09:07:49.568Z,7.00
2023-03-04T09:12:51.619Z,6.15
2023-03-04T09:17:53.519Z,9.32
2023-03-04T09:22:55.100Z,9.02
2023-03-04T09:27:56.616Z,8.40
2023-03-04T09:32:58.073Z,8.60
2023-03-04T09:37:59.568Z,10.57
2023-03-04T09:43:03.695Z,8.57
2023-03-04T09:48:05.978Z,7.75
2023-03-04T09:53:34.413Z,6.40
2023-03-04T09:58:41.624Z,9.32
2023-03-04T10:03:45.741Z,6.90
2023-03-04T10:08:47.191Z,8.52
2023-03-04T10:13:54.689Z,7.18
2023-03-04T10:18:58.332Z,12.93
2023-03-04T10:24:02.465Z,10.05
2023-03-04T10:29:07.129Z,10.65
2023-03-04T10:34:10.749Z,9.40
2023-03-04T10:39:13.177Z,7.80
2023-03-04T10:44:18.005Z,13.50
2023-03-04T10:49:19.717Z,12.10
2023-03-04T10:54:32.222Z,18.77
2023-03-04T10:59:36.518Z,16.05
2023-03-04T11:04:37.903Z,14.35
2023-03-04T11:09:40.288Z,19.15
2023-03-04T11:14:46.101Z,18.95
2023-03-04T11:19:51.466Z,23.15
2023-03-04T11:24:56.007Z,15.20
2023-03-04T11:30:20.484Z,19.33
2023-03-04T11:35:25.266Z,15.38
2023-03-04T11:40:46.985Z,13.88
2023-03-04T11:45:54.525Z,16.80
2023-03-04T11:51:03.638Z,18.80
2023-03-04T11:56:05.475Z,22.77
2023-03-04T12:01:12.918Z,12.43
2023-03-04T12:06:17.238Z,17.33
2023-03-04T12:11:40.535Z,13.10
2023-03-04T12:16:48.138Z,13.32
2023-03-04T12:22:01.948Z,13.45
2023-03-04T12:27:09.556Z,7.82
2023-03-04T12:32:13.760Z,6.72
2023-03-04T12:37:38.557Z,11.70
2023-03-04T12:42:39.985Z,8.48
2023-03-04T12:47:41.379Z,6.38
2023-03-04T12:52:42.791Z,6.13
2023-03-04T12:57:44.966Z,5.53
2023-03-04T13:02:46.546Z,10.07
2023-03-04T13:08:06.509Z,10.25
2023-03-04T13:13:34.038Z,9.80
2023-03-04T13:18:36.724Z,6.85
2023-03-04T13:23:38.259Z,11.45
2023-03-04T13:28:39.680Z,8.38
2023-03-04T13:33:49.121Z,11.80
2023-03-04T13:39:00.580Z,10.02
2023-03-04T13:44:03.138Z,7.90
2023-03-04T13:49:07.533Z,8.30
2023-03-04T13:54:28.743Z,5.82
2023-03-04T13:59:35.752Z,9.57
2023-03-04T14:04:38.457Z,7.15
2023-03-04T14:09:40.110Z,6.40
2023-03-04T14:14:41.558Z,9.20
2023-03-04T14:19:46.928Z,10.75
2023-03-04T14:25:07.261Z,8.60
2023-03-04T14:30:22.084Z,15.77
2023-03-04T14:35:28.656Z,13.05
2023-03-04T14:40:31.780Z,11.43
2023-03-04T14:45:33.270Z,12.80
2023-03-04T14:50:37.383Z,13.38
2023-03-04T14:55:39.251Z,12.43
2023-03-04T15:00:41.138Z,16.95
2023-03-04T15:05:42.655Z,14.70
2023-03-04T15:10:53.645Z,12.25
2023-03-04T15:16:00.793Z,14.15
2023-03-04T15:21:25.153Z,11.55
2023-03-04T15:26:27.204Z,14.00
2023-03-04T15:31:29.325Z,11.63
2023-03-04T15:36:30.751Z,12.77
2023-03-04T15:41:32.379Z,17.85
2023-03-04T15:46:33.903Z,16.35
2023-03-04T15:51:35.846Z,20.42
2023-03-04T15:56:37.416Z,14.50
2023-03-04T16:01:38.861Z,10.45
2023-03-04T16:06:41.014Z,16.33
2023-03-04T16:11:45.523Z,16.83
2023-03-04T16:16:48.029Z,13.32
2023-03-04T16:21:49.524Z,12.07
2023-03-04T16:26:52.776Z,17.30
2023-03-04T16:31:54.461Z,14.32
2023-03-04T16:36:55.901Z,13.98
2023-03-04T16:41:57.437Z,14.10
2023-03-04T16:46:58.804Z,13.35
2023-03-04T16:52:00.264Z,16.48
2023-03-04T16:57:01.880Z,14.50
2023-03-04T17:02:03.376Z,14.77
2023-03-04T17:07:04.790Z,11.82
2023-03-04T17:12:06.909Z,9.95
2023-03-04T17:17:08.406Z,11.48
2023-03-04T17:22:09.804Z,15.20
2023-03-04T17:27:11.326Z,21.83
2023-03-04T17:32:12.797Z,12.18
2023-03-04T17:37:14.222Z,13.65
2023-03-04T17:42:15.718Z,9.77
2023-03-04T17:47:17.367Z,9.35
2023-03-04T17:52:19.273Z,12.68
2023-03-04T17:57:20.749Z,12.68
2023-03-04T18:02:22.322Z,10.45
2023-03-04T18:07:23.767Z,12.77
2023-03-04T18:12:25.298Z,11.18
2023-03-04T18:17:26.795Z,14.57
2023-03-04T18:22:28.244Z,12.20
2023-03-04T18:27:29.684Z,9.20
2023-03-04T18:32:41.874Z,12.57
2023-03-04T18:37:52.571Z,8.82
2023-03-04T18:42:54.968Z,12.77
2023-03-04T18:47:57.177Z,15.55
2023-03-04T18:52:58.631Z,6.68
2023-03-04T18:58:01.585Z,14.75
2023-03-04T19:03:06.687Z,8.57
2023-03-04T19:08:08.203Z,8.10
2023-03-04T19:13:09.587Z,9.93
2023-03-04T19:18:11.189Z,16.88
2023-03-04T19:23:13.386Z,16.63
2023-03-04T19:28:14.782Z,17.13
2023-03-04T19:33:16.246Z,16.15
2023-03-04T19:38:18.093Z,16.88
2023-03-04T19:43:19.797Z,13.75
2023-03-04T19:48:23.107Z,13.40
2023-03-04T19:53:24.516Z,14.38
2023-03-04T19:58:26.990Z,16.65
2023-03-04T20:03:28.603Z,17.92
2023-03-04T20:08:30.113Z,16.85
2023-03-04T20:13:31.628Z,18.05
2023-03-04T20:18:33.083Z,18.35
2023-03-04T20:23:35.174Z,9.82
2023-03-04T20:28:36.720Z,13.30
2023-03-04T20:33:38.243Z,15.10
2023-03-04T20:38:39.686Z,17.25
2023-03-04T20:43:41.217Z,13.15
2023-03-04T20:48:42.945Z,10.93
2023-03-04T20:53:45.059Z,13.95
2023-03-04T20:58:46.622Z,15.25
2023-03-04T21:03:49.236Z,14.63
2023-03-04T21:08:50.904Z,10.40
2023-03-04T21:13:58.927Z,14.93
2023-03-04T21:19:00.777Z,13.73
2023-03-04T21:24:02.278Z,11.27
2023-03-04T21:29:03.735Z,8.85
2023-03-04T21:34:05.481Z,10.32
2023-03-04T21:39:07.308Z,9.43
2023-03-04T21:44:14.462Z,10.13
2023-03-04T21:49:25.003Z,9.43
2023-03-04T21:54:26.610Z,9.98
2023-03-04T21:59:28.058Z,8.85
2023-03-04T22:04:29.679Z,12.98
2023-03-04T22:09:31.957Z,13.05
2023-03-04T22:14:33.454Z,10.45
2023-03-04T22:19:34.924Z,6.85
2023-03-04T22:24:36.392Z,8.07
2023-03-04T22:29:37.816Z,6.55
2023-03-04T22:34:39.509Z,10.05
2023-03-04T22:39:40.997Z,11.35
2023-03-04T22:44:42.452Z,10.27
2023-03-04T22:49:43.878Z,5.22
2023-03-04T22:54:45.335Z,11.75
2023-03-04T22:59:46.761Z,13.15
2023-03-04T23:04:48.227Z,9.27
2023-03-04T23:09:49.893Z,10.73
2023-03-04T23:14:51.495Z,10.30
2023-03-04T23:19:52.969Z,10.88
2023-03-04T23:24:54.459Z,9.48
2023-03-04T23:29:55.831Z,9.60
2023-03-04T23:35:15.788Z,8.02
2023-03-04T23:40:18.079Z,8.55
2023-03-04T23:45:19.657Z,11.20
2023-03-04T23:50:21.079Z,11.07
2023-03-04T23:55:22.534Z,7.40
